sensor_id;sensor_type;location;lat;lon;timestamp;temperature;humidity
11284;DHT22;5698;47.332;11.180;2023-03-12T00:02:21;-0.80;99.90
11284;DHT22;5698;47.332;11.180;2023-03-12T00:04:48;-0.80;99.90
11284;DHT22;5698;47.332;11.180;2023-03-12T00:07:15;-0.80;99.90
11284;DHT22;5698;47.332;11.180;2023-03-12T00:09:42;-0.80;99.90
11284;DHT22;5698;47.332;11.180;2023-03-12T00:12:10;-0.80;99.90
11284;DHT22;5698;47.332;11.180;2023-03-12T00:14:38;-0.80;99.90
11284;DHT22;5698;47.332;11.180;2023-03-12T00:17:05;-0.80;99.90
11284;DHT22;5698;47.332;11.180;2023-03-12T00:19:32;-0.80;99.90
11284;DHT22;5698;47.332;11.180;2023-03-12T00:21:59;-0.80;99.90
11284;DHT22;5698;47.332;11.180;2023-03-12T00:24:26;-0.80;99.90
11284;DHT22;5698;47.332;11.180;2023-03-12T00:26:53;-0.90;99.90
11284;DHT22;5698;47.332;11.180;2023-03-12T00:29:20;-0.90;99.90
11284;DHT22;5698;47.332;11.180;2023-03-12T00:31:49;-0.90;99.90
11284;DHT22;5698;47.332;11.180;2023-03-12T00:34:16;-0.90;99.90
11284;DHT22;5698;47.332;11.180;2023-03-12T00:36:43;-0.80;99.90
11284;DHT22;5698;47.332;11.180;2023-03-12T00:39:10;-0.80;99.90
11284;DHT22;5698;47.332;11.180;2023-03-12T00:41:37;-0.80;99.90
11284;DHT22;5698;47.332;11.180;2023-03-12T00:44:04;-0.90;99.90
11284;DHT22;5698;47.332;11.180;2023-03-12T00:46:31;-0.90;99.90
11284;DHT22;5698;47.332;11.180;2023-03-12T00:48:59;-1.00;99.90
11284;DHT22;5698;47.332;11.180;2023-03-12T00:51:26;-0.90;99.90
11284;DHT22;5698;47.332;11.180;2023-03-12T00:53:53;-0.80;99.90
11284;DHT22;5698;47.332;11.180;2023-03-12T00:56:21;-0.90;99.90
11284;DHT22;5698;47.332;11.180;2023-03-12T00:58:48;-0.90;99.90
11284;DHT22;5698;47.332;11.180;2023-03-12T01:01:15;-0.90;99.90
11284;DHT22;5698;47.332;11.180;2023-03-12T01:03:42;-1.00;99.90
11284;DHT22;5698;47.332;11.180;2023-03-12T01:06:10;-0.90;99.90
11284;DHT22;5698;47.332;11.180;2023-03-12T01:08:37;-0.90;99.90
11284;DHT22;5698;47.332;11.180;2023-03-12T01:11:04;-0.90;99.90
11284;DHT22;5698;47.332;11.180;2023-03-12T01:13:31;-1.00;99.90
11284;DHT22;5698;47.332;11.180;2023-03-12T01:15:58;-0.90;99.90
11284;DHT22;5698;47.332;11.180;2023-03-12T01:18:25;-0.90;99.90
11284;DHT22;5698;47.332;11.180;2023-03-12T01:20:52;-0.90;99.90
11284;DHT22;5698;47.332;11.180;2023-03-12T01:23:21;-0.90;99.90
11284;DHT22;5698;47.332;11.180;2023-03-12T01:25:48;-0.80;99.90
11284;DHT22;5698;47.332;11.180;2023-03-12T01:28:16;-0.90;99.90
11284;DHT22;5698;47.332;11.180;2023-03-12T01:30:43;-0.90;99.90
11284;DHT22;5698;47.332;11.180;2023-03-12T01:33:10;-0.90;99.90
11284;DHT22;5698;47.332;11.180;2023-03-12T01:35:38;-0.90;99.90
11284;DHT22;5698;47.332;11.180;2023-03-12T01:38:05;-1.00;99.90
11284;DHT22;5698;47.332;11.180;2023-03-12T01:40:34;-0.90;99.90
11284;DHT22;5698;47.332;11.180;2023-03-12T01:43:22;-0.90;99.90
11284;DHT22;5698;47.332;11.180;2023-03-12T01:46:05;-0.90;99.90
11284;DHT22;5698;47.332;11.180;2023-03-12T01:48:35;-0.90;99.90
11284;DHT22;5698;47.332;11.180;2023-03-12T01:51:04;-0.90;99.90
11284;DHT22;5698;47.332;11.180;2023-03-12T01:53:32;-0.90;99.90
11284;DHT22;5698;47.332;11.180;2023-03-12T01:56:01;-0.90;99.90
11284;DHT22;5698;47.332;11.180;2023-03-12T01:58:30;-0.90;99.90
11284;DHT22;5698;47.332;11.180;2023-03-12T02:00:58;-0.90;99.90
11284;DHT22;5698;47.332;11.180;2023-03-12T02:03:27;-0.90;99.90
11284;DHT22;5698;47.332;11.180;2023-03-12T02:05:56;-1.00;99.90
11284;DHT22;5698;47.332;11.180;2023-03-12T02:08:25;-0.90;99.90
11284;DHT22;5698;47.332;11.180;2023-03-12T02:10:52;-0.90;99.90
11284;DHT22;5698;47.332;11.180;2023-03-12T02:13:21;-0.90;99.90
11284;DHT22;5698;47.332;11.180;2023-03-12T02:15:48;-0.90;99.90
11284;DHT22;5698;47.332;11.180;2023-03-12T02:18:16;-0.90;99.90
11284;DHT22;5698;47.332;11.180;2023-03-12T02:20:49;-1.00;99.90
11284;DHT22;5698;47.332;11.180;2023-03-12T02:23:24;-0.90;99.90
11284;DHT22;5698;47.332;11.180;2023-03-12T02:25:54;-1.00;99.90
11284;DHT22;5698;47.332;11.180;2023-03-12T02:28:25;-1.00;99.90
11284;DHT22;5698;47.332;11.180;2023-03-12T02:30:56;-1.00;99.90
11284;DHT22;5698;47.332;11.180;2023-03-12T02:33:24;-1.00;99.90
11284;DHT22;5698;47.332;11.180;2023-03-12T02:35:51;-1.10;99.90
11284;DHT22;5698;47.332;11.180;2023-03-12T02:38:32;-1.10;99.90
11284;DHT22;5698;47.332;11.180;2023-03-12T02:41:04;-1.10;99.90
11284;DHT22;5698;47.332;11.180;2023-03-12T02:43:31;-1.10;99.90
11284;DHT22;5698;47.332;11.180;2023-03-12T02:45:58;-1.20;99.90
11284;DHT22;5698;47.332;11.180;2023-03-12T02:48:25;-1.20;99.90
11284;DHT22;5698;47.332;11.180;2023-03-12T02:50:52;-1.20;99.90
11284;DHT22;5698;47.332;11.180;2023-03-12T02:53:19;-1.30;99.90
11284;DHT22;5698;47.332;11.180;2023-03-12T02:55:46;-1.40;99.90
11284;DHT22;5698;47.332;11.180;2023-03-12T02:58:15;-1.40;99.90
11284;DHT22;5698;47.332;11.180;2023-03-12T03:00:42;-1.30;99.90
11284;DHT22;5698;47.332;11.180;2023-03-12T03:03:09;-1.30;99.90
11284;DHT22;5698;47.332;11.180;2023-03-12T03:05:36;-1.30;99.90
11284;DHT22;5698;47.332;11.180;2023-03-12T03:08:03;-1.30;99.90
11284;DHT22;5698;47.332;11.180;2023-03-12T03:10:30;-1.30;99.90
11284;DHT22;5698;47.332;11.180;2023-03-12T03:12:57;-1.30;99.90
11284;DHT22;5698;47.332;11.180;2023-03-12T03:15:26;-1.20;99.90
11284;DHT22;5698;47.332;11.180;2023-03-12T03:17:53;-1.30;99.90
11284;DHT22;5698;47.332;11.180;2023-03-12T03:20:20;-1.20;99.90
11284;DHT22;5698;47.332;11.180;2023-03-12T03:22:48;-1.30;99.90
11284;DHT22;5698;47.332;11.180;2023-03-12T03:25:16;-1.40;99.90
11284;DHT22;5698;47.332;11.180;2023-03-12T03:27:46;-1.50;99.90
11284;DHT22;5698;47.332;11.180;2023-03-12T03:30:14;-1.40;99.90
11284;DHT22;5698;47.332;11.180;2023-03-12T03:32:42;-1.40;99.90
11284;DHT22;5698;47.332;11.180;2023-03-12T03:35:09;-1.30;99.90
11284;DHT22;5698;47.332;11.180;2023-03-12T03:37:36;-1.20;99.90
11284;DHT22;5698;47.332;11.180;2023-03-12T03:40:05;-1.30;99.90
11284;DHT22;5698;47.332;11.180;2023-03-12T03:42:36;-1.30;99.90
11284;DHT22;5698;47.332;11.180;2023-03-12T03:45:05;-1.30;99.90
11284;DHT22;5698;47.332;11.180;2023-03-12T03:47:32;-1.40;99.90
11284;DHT22;5698;47.332;11.180;2023-03-12T03:50:01;-1.50;99.90
11284;DHT22;5698;47.332;11.180;2023-03-12T03:52:28;-1.50;99.90
11284;DHT22;5698;47.332;11.180;2023-03-12T03:54:56;-1.30;99.90
11284;DHT22;5698;47.332;11.180;2023-03-12T03:57:24;-1.40;99.90
11284;DHT22;5698;47.332;11.180;2023-03-12T03:59:51;-1.30;99.90
11284;DHT22;5698;47.332;11.180;2023-03-12T04:02:18;-1.30;99.90
11284;DHT22;5698;47.332;11.180;2023-03-12T04:04:45;-1.30;99.90
11284;DHT22;5698;47.332;11.180;2023-03-12T04:07:13;-1.30;99.90
11284;DHT22;5698;47.332;11.180;2023-03-12T04:09:41;-1.20;99.90
11284;DHT22;5698;47.332;11.180;2023-03-12T04:12:08;-1.20;99.90
11284;DHT22;5698;47.332;11.180;2023-03-12T04:14:39;-1.00;99.90
11284;DHT22;5698;47.332;11.180;2023-03-12T04:17:06;-1.10;99.90
11284;DHT22;5698;47.332;11.180;2023-03-12T04:19:33;-1.00;99.90
11284;DHT22;5698;47.332;11.180;2023-03-12T04:22:00;-1.00;99.90
11284;DHT22;5698;47.332;11.180;2023-03-12T04:24:29;-1.00;99.90
11284;DHT22;5698;47.332;11.180;2023-03-12T04:26:56;-1.00;99.90
11284;DHT22;5698;47.332;11.180;2023-03-12T04:29:24;-1.00;99.90
11284;DHT22;5698;47.332;11.180;2023-03-12T04:31:51;-1.00;99.90
11284;DHT22;5698;47.332;11.180;2023-03-12T04:34:18;-1.00;99.90
11284;DHT22;5698;47.332;11.180;2023-03-12T04:36:46;-1.00;99.90
11284;DHT22;5698;47.332;11.180;2023-03-12T04:39:15;-1.00;99.90
11284;DHT22;5698;47.332;11.180;2023-03-12T04:41:44;-0.90;99.90
11284;DHT22;5698;47.332;11.180;2023-03-12T04:44:11;-0.90;99.90
11284;DHT22;5698;47.332;11.180;2023-03-12T04:46:38;-0.90;99.90
11284;DHT22;5698;47.332;11.180;2023-03-12T04:49:05;-0.80;99.90
11284;DHT22;5698;47.332;11.180;2023-03-12T04:51:32;-0.90;99.90
11284;DHT22;5698;47.332;11.180;2023-03-12T04:53:59;-0.80;99.90
11284;DHT22;5698;47.332;11.180;2023-03-12T04:56:26;-0.90;99.90
11284;DHT22;5698;47.332;11.180;2023-03-12T04:58:54;-0.90;99.90
11284;DHT22;5698;47.332;11.180;2023-03-12T05:01:24;-1.00;99.90
11284;DHT22;5698;47.332;11.180;2023-03-12T05:03:52;-1.00;99.90
11284;DHT22;5698;47.332;11.180;2023-03-12T05:06:19;-1.00;99.90
11284;DHT22;5698;47.332;11.180;2023-03-12T05:08:47;-1.00;99.90
11284;DHT22;5698;47.332;11.180;2023-03-12T05:11:15;-0.90;99.90
11284;DHT22;5698;47.332;11.180;2023-03-12T05:13:42;-0.90;99.90
11284;DHT22;5698;47.332;11.180;2023-03-12T05:16:14;-0.90;99.90
11284;DHT22;5698;47.332;11.180;2023-03-12T05:18:41;-0.90;99.90
11284;DHT22;5698;47.332;11.180;2023-03-12T05:21:11;-0.90;99.90
11284;DHT22;5698;47.332;11.180;2023-03-12T05:23:39;-0.90;99.90
11284;DHT22;5698;47.332;11.180;2023-03-12T05:26:13;-0.90;99.90
11284;DHT22;5698;47.332;11.180;2023-03-12T05:28:41;-0.90;99.90
11284;DHT22;5698;47.332;11.180;2023-03-12T05:31:10;-1.00;99.90
11284;DHT22;5698;47.332;11.180;2023-03-12T05:33:38;-1.00;99.90
11284;DHT22;5698;47.332;11.180;2023-03-12T05:36:05;-1.00;99.90
11284;DHT22;5698;47.332;11.180;2023-03-12T05:38:33;-1.00;99.90
11284;DHT22;5698;47.332;11.180;2023-03-12T05:41:00;-1.00;99.90
11284;DHT22;5698;47.332;11.180;2023-03-12T05:43:27;-1.00;99.90
11284;DHT22;5698;47.332;11.180;2023-03-12T05:45:57;-1.00;99.90
11284;DHT22;5698;47.332;11.180;2023-03-12T05:48:26;-1.00;99.90
11284;DHT22;5698;47.332;11.180;2023-03-12T05:50:53;-1.00;99.90
11284;DHT22;5698;47.332;11.180;2023-03-12T05:53:20;-1.30;99.90
11284;DHT22;5698;47.332;11.180;2023-03-12T05:55:47;-1.30;99.90
11284;DHT22;5698;47.332;11.180;2023-03-12T05:58:14;-1.20;99.90
11284;DHT22;5698;47.332;11.180;2023-03-12T06:00:41;-1.30;99.90
11284;DHT22;5698;47.332;11.180;2023-03-12T06:03:09;-1.40;99.90
11284;DHT22;5698;47.332;11.180;2023-03-12T06:05:38;-1.40;99.90
11284;DHT22;5698;47.332;11.180;2023-03-12T06:08:05;-1.40;99.90
11284;DHT22;5698;47.332;11.180;2023-03-12T06:10:33;-1.30;99.90
11284;DHT22;5698;47.332;11.180;2023-03-12T06:13:02;-1.40;99.90
11284;DHT22;5698;47.332;11.180;2023-03-12T06:15:30;-1.40;99.90
11284;DHT22;5698;47.332;11.180;2023-03-12T06:17:57;-1.40;99.90
11284;DHT22;5698;47.332;11.180;2023-03-12T06:20:24;-1.40;99.90
11284;DHT22;5698;47.332;11.180;2023-03-12T06:22:52;-1.50;99.90
11284;DHT22;5698;47.332;11.180;2023-03-12T06:25:19;-1.40;99.90
11284;DHT22;5698;47.332;11.180;2023-03-12T06:27:46;-1.50;99.90
11284;DHT22;5698;47.332;11.180;2023-03-12T06:30:14;-1.50;99.90
11284;DHT22;5698;47.332;11.180;2023-03-12T06:32:41;-1.50;99.90
11284;DHT22;5698;47.332;11.180;2023-03-12T06:35:08;-1.50;99.90
11284;DHT22;5698;47.332;11.180;2023-03-12T06:37:35;-1.50;99.90
11284;DHT22;5698;47.332;11.180;2023-03-12T06:40:05;-1.50;99.90
11284;DHT22;5698;47.332;11.180;2023-03-12T06:42:35;-1.50;99.90
11284;DHT22;5698;47.332;11.180;2023-03-12T06:45:03;-1.50;99.90
11284;DHT22;5698;47.332;11.180;2023-03-12T06:47:30;-1.50;99.90
11284;DHT22;5698;47.332;11.180;2023-03-12T06:49:57;-1.40;99.90
11284;DHT22;5698;47.332;11.180;2023-03-12T06:52:24;-1.30;99.90
11284;DHT22;5698;47.332;11.180;2023-03-12T06:54:51;-1.30;99.90
11284;DHT22;5698;47.332;11.180;2023-03-12T06:57:20;-1.30;99.90
11284;DHT22;5698;47.332;11.180;2023-03-12T06:59:47;-1.40;99.90
11284;DHT22;5698;47.332;11.180;2023-03-12T07:02:13;-1.30;99.90
11284;DHT22;5698;47.332;11.180;2023-03-12T07:04:40;-1.40;99.90
11284;DHT22;5698;47.332;11.180;2023-03-12T07:07:08;-1.20;99.90
11284;DHT22;5698;47.332;11.180;2023-03-12T07:09:36;-1.20;99.90
11284;DHT22;5698;47.332;11.180;2023-03-12T07:12:03;-1.20;99.90
11284;DHT22;5698;47.332;11.180;2023-03-12T07:14:32;-1.10;99.90
11284;DHT22;5698;47.332;11.180;2023-03-12T07:16:59;-1.00;99.90
11284;DHT22;5698;47.332;11.180;2023-03-12T07:19:27;-0.90;99.90
11284;DHT22;5698;47.332;11.180;2023-03-12T07:21:54;-0.80;99.90
11284;DHT22;5698;47.332;11.180;2023-03-12T07:24:21;-0.80;99.90
11284;DHT22;5698;47.332;11.180;2023-03-12T07:26:48;-0.80;99.90
11284;DHT22;5698;47.332;11.180;2023-03-12T07:29:15;-0.80;99.90
11284;DHT22;5698;47.332;11.180;2023-03-12T07:31:44;-0.70;99.90
11284;DHT22;5698;47.332;11.180;2023-03-12T07:34:11;-0.80;99.90
11284;DHT22;5698;47.332;11.180;2023-03-12T07:36:38;-0.60;99.90
11284;DHT22;5698;47.332;11.180;2023-03-12T07:39:05;-0.60;99.90
11284;DHT22;5698;47.332;11.180;2023-03-12T07:41:32;-0.70;99.90
11284;DHT22;5698;47.332;11.180;2023-03-12T07:44:02;-0.70;99.90
11284;DHT22;5698;47.332;11.180;2023-03-12T07:46:29;-0.60;99.90
11284;DHT22;5698;47.332;11.180;2023-03-12T07:48:57;-0.50;99.90
11284;DHT22;5698;47.332;11.180;2023-03-12T07:51:24;-0.40;99.90
11284;DHT22;5698;47.332;11.180;2023-03-12T07:53:51;-0.40;99.90
11284;DHT22;5698;47.332;11.180;2023-03-12T07:56:18;-0.30;99.90
11284;DHT22;5698;47.332;11.180;2023-03-12T07:58:45;-0.20;99.90
11284;DHT22;5698;47.332;11.180;2023-03-12T08:01:13;-0.30;99.90
11284;DHT22;5698;47.332;11.180;2023-03-12T08:03:39;-0.40;99.90
11284;DHT22;5698;47.332;11.180;2023-03-12T08:06:08;-0.40;99.90
11284;DHT22;5698;47.332;11.180;2023-03-12T08:08:36;-0.30;99.90
11284;DHT22;5698;47.332;11.180;2023-03-12T08:11:06;-0.20;99.90
11284;DHT22;5698;47.332;11.180;2023-03-12T08:13:34;-0.10;99.90
11284;DHT22;5698;47.332;11.180;2023-03-12T08:16:01;0.10;99.90
11284;DHT22;5698;47.332;11.180;2023-03-12T08:18:28;0.20;99.90
11284;DHT22;5698;47.332;11.180;2023-03-12T08:20:55;0.30;99.90
11284;DHT22;5698;47.332;11.180;2023-03-12T08:23:25;0.40;99.90
11284;DHT22;5698;47.332;11.180;2023-03-12T08:25:52;0.50;99.90
11284;DHT22;5698;47.332;11.180;2023-03-12T08:28:21;0.50;99.90
11284;DHT22;5698;47.332;11.180;2023-03-12T08:30:50;0.50;99.90
11284;DHT22;5698;47.332;11.180;2023-03-12T08:33:18;0.60;99.90
11284;DHT22;5698;47.332;11.180;2023-03-12T08:35:46;0.60;99.90
11284;DHT22;5698;47.332;11.180;2023-03-12T08:38:13;0.60;99.90
11284;DHT22;5698;47.332;11.180;2023-03-12T08:40:41;0.50;99.90
11284;DHT22;5698;47.332;11.180;2023-03-12T08:43:09;0.40;99.90
11284;DHT22;5698;47.332;11.180;2023-03-12T08:45:36;0.50;99.90
11284;DHT22;5698;47.332;11.180;2023-03-12T08:48:04;0.60;99.90
11284;DHT22;5698;47.332;11.180;2023-03-12T08:50:31;0.80;99.90
11284;DHT22;5698;47.332;11.180;2023-03-12T08:52:58;1.20;99.90
11284;DHT22;5698;47.332;11.180;2023-03-12T08:55:26;1.20;99.90
11284;DHT22;5698;47.332;11.180;2023-03-12T08:57:55;1.40;99.90
11284;DHT22;5698;47.332;11.180;2023-03-12T09:00:22;1.60;99.90
11284;DHT22;5698;47.332;11.180;2023-03-12T09:02:49;1.60;99.90
11284;DHT22;5698;47.332;11.180;2023-03-12T09:05:18;1.80;99.90
11284;DHT22;5698;47.332;11.180;2023-03-12T09:07:45;1.70;99.90
11284;DHT22;5698;47.332;11.180;2023-03-12T09:10:15;1.60;99.90
11284;DHT22;5698;47.332;11.180;2023-03-12T09:12:42;1.70;99.90
11284;DHT22;5698;47.332;11.180;2023-03-12T09:15:12;1.80;99.90
11284;DHT22;5698;47.332;11.180;2023-03-12T09:17:39;1.90;99.90
11284;DHT22;5698;47.332;11.180;2023-03-12T09:20:07;1.80;99.90
11284;DHT22;5698;47.332;11.180;2023-03-12T09:22:35;1.80;99.90
11284;DHT22;5698;47.332;11.180;2023-03-12T09:25:03;1.90;99.90
11284;DHT22;5698;47.332;11.180;2023-03-12T09:27:35;2.00;99.90
11284;DHT22;5698;47.332;11.180;2023-03-12T09:30:02;2.20;99.90
11284;DHT22;5698;47.332;11.180;2023-03-12T09:32:30;2.30;99.90
11284;DHT22;5698;47.332;11.180;2023-03-12T09:34:58;2.20;99.90
11284;DHT22;5698;47.332;11.180;2023-03-12T09:37:25;2.20;99.90
11284;DHT22;5698;47.332;11.180;2023-03-12T09:39:52;2.30;99.90
11284;DHT22;5698;47.332;11.180;2023-03-12T09:42:22;2.10;99.90
11284;DHT22;5698;47.332;11.180;2023-03-12T09:44:51;1.90;99.90
11284;DHT22;5698;47.332;11.180;2023-03-12T09:47:25;1.70;99.90
11284;DHT22;5698;47.332;11.180;2023-03-12T09:49:57;1.70;99.90
11284;DHT22;5698;47.332;11.180;2023-03-12T09:52:29;1.90;99.90
11284;DHT22;5698;47.332;11.180;2023-03-12T09:55:02;2.10;99.90
11284;DHT22;5698;47.332;11.180;2023-03-12T09:57:32;2.30;99.90
11284;DHT22;5698;47.332;11.180;2023-03-12T10:00:00;2.40;99.90
11284;DHT22;5698;47.332;11.180;2023-03-12T10:02:57;2.30;99.90
11284;DHT22;5698;47.332;11.180;2023-03-12T10:05:35;2.50;99.90
11284;DHT22;5698;47.332;11.180;2023-03-12T10:08:08;2.60;99.90
11284;DHT22;5698;47.332;11.180;2023-03-12T10:10:49;2.60;99.90
11284;DHT22;5698;47.332;11.180;2023-03-12T10:13:29;2.70;99.90
11284;DHT22;5698;47.332;11.180;2023-03-12T10:16:11;2.70;99.90
11284;DHT22;5698;47.332;11.180;2023-03-12T10:19:03;2.80;99.90
11284;DHT22;5698;47.332;11.180;2023-03-12T10:21:37;2.90;99.90
11284;DHT22;5698;47.332;11.180;2023-03-12T10:24:19;3.00;99.90
11284;DHT22;5698;47.332;11.180;2023-03-12T10:26:49;3.10;99.90
11284;DHT22;5698;47.332;11.180;2023-03-12T10:29:20;3.10;99.90
11284;DHT22;5698;47.332;11.180;2023-03-12T10:31:52;3.10;99.90
11284;DHT22;5698;47.332;11.180;2023-03-12T10:34:24;2.90;99.90
11284;DHT22;5698;47.332;11.180;2023-03-12T10:36:58;2.90;99.90
11284;DHT22;5698;47.332;11.180;2023-03-12T10:39:26;3.10;99.90
11284;DHT22;5698;47.332;11.180;2023-03-12T10:41:53;3.20;99.90
11284;DHT22;5698;47.332;11.180;2023-03-12T10:44:22;3.20;99.90
11284;DHT22;5698;47.332;11.180;2023-03-12T10:46:56;3.30;99.90
11284;DHT22;5698;47.332;11.180;2023-03-12T10:49:30;3.40;99.90
11284;DHT22;5698;47.332;11.180;2023-03-12T10:52:04;3.70;99.90
11284;DHT22;5698;47.332;11.180;2023-03-12T10:54:34;3.90;99.90
11284;DHT22;5698;47.332;11.180;2023-03-12T10:57:03;3.80;99.90
11284;DHT22;5698;47.332;11.180;2023-03-12T10:59:32;4.00;99.90
11284;DHT22;5698;47.332;11.180;2023-03-12T11:02:00;4.20;99.90
11284;DHT22;5698;47.332;11.180;2023-03-12T11:04:28;4.20;99.90
11284;DHT22;5698;47.332;11.180;2023-03-12T11:07:17;4.30;99.90
11284;DHT22;5698;47.332;11.180;2023-03-12T11:09:44;4.40;99.90
11284;DHT22;5698;47.332;11.180;2023-03-12T11:12:26;4.30;99.90
11284;DHT22;5698;47.332;11.180;2023-03-12T11:14:54;4.30;99.90
11284;DHT22;5698;47.332;11.180;2023-03-12T11:17:22;4.30;99.90
11284;DHT22;5698;47.332;11.180;2023-03-12T11:19:50;4.40;99.90
11284;DHT22;5698;47.332;11.180;2023-03-12T11:22:28;4.40;99.90
11284;DHT22;5698;47.332;11.180;2023-03-12T11:24:58;4.50;99.90
11284;DHT22;5698;47.332;11.180;2023-03-12T11:27:39;4.70;99.90
11284;DHT22;5698;47.332;11.180;2023-03-12T11:30:13;4.90;99.90
11284;DHT22;5698;47.332;11.180;2023-03-12T11:32:43;4.90;99.90
11284;DHT22;5698;47.332;11.180;2023-03-12T11:35:12;5.10;99.90
11284;DHT22;5698;47.332;11.180;2023-03-12T11:37:51;5.00;99.90
11284;DHT22;5698;47.332;11.180;2023-03-12T11:40:34;5.20;99.90
11284;DHT22;5698;47.332;11.180;2023-03-12T11:43:25;5.40;99.90
11284;DHT22;5698;47.332;11.180;2023-03-12T11:46:07;5.60;99.90
11284;DHT22;5698;47.332;11.180;2023-03-12T11:48:45;5.80;99.90
11284;DHT22;5698;47.332;11.180;2023-03-12T11:51:21;5.90;99.90
11284;DHT22;5698;47.332;11.180;2023-03-12T11:56:56;5.70;99.90
11284;DHT22;5698;47.332;11.180;2023-03-12T11:59:38;5.90;99.90
11284;DHT22;5698;47.332;11.180;2023-03-12T12:02:18;6.10;99.90
11284;DHT22;5698;47.332;11.180;2023-03-12T12:05:17;6.30;99.90
11284;DHT22;5698;47.332;11.180;2023-03-12T12:07:57;6.50;99.90
11284;DHT22;5698;47.332;11.180;2023-03-12T12:10:32;6.60;99.90
11284;DHT22;5698;47.332;11.180;2023-03-12T12:13:07;6.60;99.90
11284;DHT22;5698;47.332;11.180;2023-03-12T12:15:42;6.60;99.90
11284;DHT22;5698;47.332;11.180;2023-03-12T12:18:23;6.70;99.90
11284;DHT22;5698;47.332;11.180;2023-03-12T12:21:01;6.60;99.90
11284;DHT22;5698;47.332;11.180;2023-03-12T12:23:39;6.70;99.90
11284;DHT22;5698;47.332;11.180;2023-03-12T12:26:12;6.70;99.90
11284;DHT22;5698;47.332;11.180;2023-03-12T12:28:52;6.50;99.90
11284;DHT22;5698;47.332;11.180;2023-03-12T12:31:28;6.60;99.90
11284;DHT22;5698;47.332;11.180;2023-03-12T12:34:10;6.60;99.90
11284;DHT22;5698;47.332;11.180;2023-03-12T12:36:43;6.60;99.90
11284;DHT22;5698;47.332;11.180;2023-03-12T12:39:14;6.20;99.90
11284;DHT22;5698;47.332;11.180;2023-03-12T12:41:50;6.20;99.90
11284;DHT22;5698;47.332;11.180;2023-03-12T12:44:22;6.20;99.90
11284;DHT22;5698;47.332;11.180;2023-03-12T12:46:54;6.20;99.90
11284;DHT22;5698;47.332;11.180;2023-03-12T12:49:30;6.20;99.90
11284;DHT22;5698;47.332;11.180;2023-03-12T12:52:04;6.30;99.90
11284;DHT22;5698;47.332;11.180;2023-03-12T12:54:36;6.50;99.90
11284;DHT22;5698;47.332;11.180;2023-03-12T12:57:12;6.60;99.90
11284;DHT22;5698;47.332;11.180;2023-03-12T12:59:43;6.70;99.90
11284;DHT22;5698;47.332;11.180;2023-03-12T13:02:16;6.70;99.90
11284;DHT22;5698;47.332;11.180;2023-03-12T13:04:45;6.60;99.90
11284;DHT22;5698;47.332;11.180;2023-03-12T13:07:31;6.60;99.90
11284;DHT22;5698;47.332;11.180;2023-03-12T13:10:05;6.60;99.90
11284;DHT22;5698;47.332;11.180;2023-03-12T13:12:41;6.60;99.90
11284;DHT22;5698;47.332;11.180;2023-03-12T13:15:33;6.60;99.90
11284;DHT22;5698;47.332;11.180;2023-03-12T13:18:07;6.60;99.90
11284;DHT22;5698;47.332;11.180;2023-03-12T13:20:40;6.50;99.90
11284;DHT22;5698;47.332;11.180;2023-03-12T13:23:28;6.40;99.90
11284;DHT22;5698;47.332;11.180;2023-03-12T13:26:03;6.10;99.90
11284;DHT22;5698;47.332;11.180;2023-03-12T13:28:36;6.00;99.90
11284;DHT22;5698;47.332;11.180;2023-03-12T13:31:34;6.00;99.90
11284;DHT22;5698;47.332;11.180;2023-03-12T13:34:31;5.90;99.90
11284;DHT22;5698;47.332;11.180;2023-03-12T13:37:26;5.50;99.90
11284;DHT22;5698;47.332;11.180;2023-03-12T13:39:57;5.20;99.90
11284;DHT22;5698;47.332;11.180;2023-03-12T13:42:34;4.90;99.90
11284;DHT22;5698;47.332;11.180;2023-03-12T13:45:22;4.80;99.90
11284;DHT22;5698;47.332;11.180;2023-03-12T13:47:54;4.60;99.90
11284;DHT22;5698;47.332;11.180;2023-03-12T13:50:24;4.80;99.90
11284;DHT22;5698;47.332;11.180;2023-03-12T13:53:01;5.00;99.90
11284;DHT22;5698;47.332;11.180;2023-03-12T13:55:29;4.90;99.90
11284;DHT22;5698;47.332;11.180;2023-03-12T13:58:03;4.90;99.90
11284;DHT22;5698;47.332;11.180;2023-03-12T14:00:38;5.10;99.90
11284;DHT22;5698;47.332;11.180;2023-03-12T14:03:12;5.40;99.90
11284;DHT22;5698;47.332;11.180;2023-03-12T14:05:48;5.50;99.90
11284;DHT22;5698;47.332;11.180;2023-03-12T14:08:41;5.60;99.90
11284;DHT22;5698;47.332;11.180;2023-03-12T14:11:22;5.80;99.90
11284;DHT22;5698;47.332;11.180;2023-03-12T14:14:30;5.90;99.90
11284;DHT22;5698;47.332;11.180;2023-03-12T14:17:03;6.10;99.90
11284;DHT22;5698;47.332;11.180;2023-03-12T14:19:33;6.30;99.90
11284;DHT22;5698;47.332;11.180;2023-03-12T14:22:03;6.40;99.90
11284;DHT22;5698;47.332;11.180;2023-03-12T14:24:33;6.50;99.90
11284;DHT22;5698;47.332;11.180;2023-03-12T14:27:02;6.60;99.90
11284;DHT22;5698;47.332;11.180;2023-03-12T14:29:34;6.60;99.90
11284;DHT22;5698;47.332;11.180;2023-03-12T14:32:05;6.60;99.90
11284;DHT22;5698;47.332;11.180;2023-03-12T14:34:40;6.60;99.90
11284;DHT22;5698;47.332;11.180;2023-03-12T14:37:12;6.70;99.90
11284;DHT22;5698;47.332;11.180;2023-03-12T14:39:42;6.60;99.90
11284;DHT22;5698;47.332;11.180;2023-03-12T14:42:19;6.60;99.90
11284;DHT22;5698;47.332;11.180;2023-03-12T14:44:55;6.70;99.90
11284;DHT22;5698;47.332;11.180;2023-03-12T14:47:24;6.70;99.90
11284;DHT22;5698;47.332;11.180;2023-03-12T14:49:51;6.60;99.90
11284;DHT22;5698;47.332;11.180;2023-03-12T14:52:22;6.70;99.90
11284;DHT22;5698;47.332;11.180;2023-03-12T14:54:53;6.60;99.90
11284;DHT22;5698;47.332;11.180;2023-03-12T14:57:20;6.40;99.90
11284;DHT22;5698;47.332;11.180;2023-03-12T14:59:51;6.30;99.90
11284;DHT22;5698;47.332;11.180;2023-03-12T15:02:19;6.30;99.90
11284;DHT22;5698;47.332;11.180;2023-03-12T15:04:49;6.20;99.90
11284;DHT22;5698;47.332;11.180;2023-03-12T15:07:20;6.10;99.90
11284;DHT22;5698;47.332;11.180;2023-03-12T15:09:49;6.10;99.90
11284;DHT22;5698;47.332;11.180;2023-03-12T15:12:19;5.90;99.90
11284;DHT22;5698;47.332;11.180;2023-03-12T15:14:47;5.90;99.90
11284;DHT22;5698;47.332;11.180;2023-03-12T15:17:17;5.80;99.90
11284;DHT22;5698;47.332;11.180;2023-03-12T15:19:45;5.70;99.90
11284;DHT22;5698;47.332;11.180;2023-03-12T15:22:17;5.60;99.90
11284;DHT22;5698;47.332;11.180;2023-03-12T15:24:45;5.40;99.90
11284;DHT22;5698;47.332;11.180;2023-03-12T15:27:28;5.40;99.90
11284;DHT22;5698;47.332;11.180;2023-03-12T15:29:57;5.30;99.90
11284;DHT22;5698;47.332;11.180;2023-03-12T15:32:25;5.30;99.90
11284;DHT22;5698;47.332;11.180;2023-03-12T15:34:54;5.30;99.90
11284;DHT22;5698;47.332;11.180;2023-03-12T15:37:24;5.20;99.90
11284;DHT22;5698;47.332;11.180;2023-03-12T15:39:58;5.10;99.90
11284;DHT22;5698;47.332;11.180;2023-03-12T15:42:27;4.90;99.90
11284;DHT22;5698;47.332;11.180;2023-03-12T15:44:56;4.80;99.90
11284;DHT22;5698;47.332;11.180;2023-03-12T15:47:25;4.80;99.90
11284;DHT22;5698;47.332;11.180;2023-03-12T15:49:55;4.70;99.90
11284;DHT22;5698;47.332;11.180;2023-03-12T15:52:33;4.30;99.90
11284;DHT22;5698;47.332;11.180;2023-03-12T15:55:21;4.10;99.90
11284;DHT22;5698;47.332;11.180;2023-03-12T15:57:49;4.00;99.90
11284;DHT22;5698;47.332;11.180;2023-03-12T16:00:25;4.10;99.90
11284;DHT22;5698;47.332;11.180;2023-03-12T16:02:55;4.10;99.90